Time;durP1;ratioP1;P1;durP2;ratioP2;P2;SDS_P1;SDS_P2;PMS_P1;PMS_P2;Temp;Humidity;BMP_temperature;BMP_pressure;BME280_temperature;BME280_humidity;BME280_pressure;Samples;Min_cycle;Max_cycle;Signal;HPM_P1;HPM_P2
2023/10/30 00:02:10;;;;;;;4.00;1.00;;;12.50;1.00;;;;;;5078704;28;20218;-82
2023/10/30 00:04:37;;;;;;;2.00;1.00;;;12.70;1.00;;;;;;5072673;28;20210;-83
2023/10/30 00:07:04;;;;;;;3.27;1.30;;;12.70;1.00;;;;;;5072866;28;20228;-85
2023/10/30 00:09:31;;;;;;;2.47;0.83;;;12.70;1.00;;;;;;5076873;28;20210;-83
2023/10/30 00:11:58;;;;;;;5.40;1.83;;;12.60;1.00;;;;;;5076293;28;20248;-84
2023/10/30 00:14:25;;;;;;;4.80;0.90;;;12.50;1.00;;;;;;5076435;28;20202;-82
2023/10/30 00:16:53;;;;;;;5.10;1.00;;;12.60;1.00;;;;;;5077041;28;20202;-83
2023/10/30 00:19:20;;;;;;;2.43;0.70;;;12.70;1.00;;;;;;5076549;28;20747;-83
2023/10/30 00:21:47;;;;;;;5.07;0.73;;;12.60;1.00;;;;;;5075902;28;20234;-83
2023/10/30 00:24:13;;;;;;;3.20;1.10;;;12.60;1.00;;;;;;5076493;28;20268;-82
2023/10/30 00:26:41;;;;;;;7.50;1.60;;;12.60;1.00;;;;;;5087176;28;20202;-84
2023/10/30 00:29:07;;;;;;;4.83;1.17;;;12.70;1.00;;;;;;5078956;28;20217;-83
2023/10/30 00:31:34;;;;;;;5.63;1.30;;;12.70;1.00;;;;;;5076305;28;20211;-83
2023/10/30 00:34:03;;;;;;;5.70;1.00;;;12.60;1.00;;;;;;5075902;28;20301;-84
2023/10/30 00:36:30;;;;;;;3.50;1.17;;;12.80;1.00;;;;;;5076247;28;20206;-82
2023/10/30 00:38:57;;;;;;;4.07;1.00;;;12.70;1.00;;;;;;5076344;28;20210;-83
2023/10/30 00:41:24;;;;;;;6.23;1.10;;;12.60;1.00;;;;;;5075324;28;20226;-84
2023/10/30 00:43:50;;;;;;;3.87;1.07;;;12.50;1.00;;;;;;5079674;28;20213;-83
2023/10/30 00:46:17;;;;;;;6.23;1.03;;;12.60;1.00;;;;;;5091363;28;20205;-84
2023/10/30 00:48:44;;;;;;;3.47;1.37;;;12.50;1.00;;;;;;5075874;28;20210;-84
2023/10/30 00:51:12;;;;;;;4.27;1.00;;;12.50;1.00;;;;;;5076472;28;20591;-83
2023/10/30 00:53:39;;;;;;;2.50;0.97;;;12.50;1.00;;;;;;5076409;28;20582;-82
2023/10/30 00:56:06;;;;;;;6.40;1.47;;;12.50;1.00;;;;;;5076376;28;20284;-84
2023/10/30 00:58:33;;;;;;;7.63;1.10;;;12.50;1.00;;;;;;5077288;28;20198;-83
2023/10/30 01:01:00;;;;;;;3.17;1.00;;;12.60;1.00;;;;;;5071614;28;20230;-84
2023/10/30 01:03:27;;;;;;;4.80;0.93;;;12.70;1.00;;;;;;5075005;28;20218;-82
2023/10/30 01:05:57;;;;;;;3.60;1.10;;;12.50;1.00;;;;;;5075228;28;20203;-82
2023/10/30 01:08:26;;;;;;;4.63;1.03;;;12.50;1.00;;;;;;5075574;28;20198;-83
2023/10/30 01:10:55;;;;;;;6.97;1.03;;;12.40;1.00;;;;;;5075360;28;20226;-84
2023/10/30 01:13:23;;;;;;;5.00;1.17;;;12.50;1.00;;;;;;5074806;28;20202;-85
2023/10/30 01:15:52;;;;;;;5.63;1.37;;;12.70;1.00;;;;;;5070190;28;20199;-83
2023/10/30 01:18:19;;;;;;;3.40;1.37;;;12.60;1.00;;;;;;5083565;28;20565;-84
2023/10/30 01:20:46;;;;;;;2.30;0.90;;;12.60;1.00;;;;;;5074445;28;20223;-82
2023/10/30 01:23:13;;;;;;;3.20;1.17;;;12.50;1.00;;;;;;5074908;28;20233;-82
2023/10/30 01:25:41;;;;;;;5.37;1.00;;;12.50;1.00;;;;;;5075205;28;20202;-82
2023/10/30 01:28:08;;;;;;;4.80;0.90;;;12.40;1.00;;;;;;5071423;28;20198;-82
2023/10/30 01:30:35;;;;;;;4.33;1.30;;;12.40;1.00;;;;;;5069621;28;20198;-83
2023/10/30 01:33:02;;;;;;;5.30;1.60;;;12.30;1.00;;;;;;5074383;28;20302;-82
2023/10/30 01:35:28;;;;;;;2.87;0.93;;;12.30;1.00;;;;;;5091069;28;20194;-82
2023/10/30 01:37:55;;;;;;;5.80;1.83;;;12.30;1.00;;;;;;5075001;28;20582;-84
2023/10/30 01:40:22;;;;;;;5.93;1.17;;;12.30;1.00;;;;;;5074755;28;20206;-82
2023/10/30 01:42:50;;;;;;;3.47;0.97;;;12.30;1.00;;;;;;5082643;28;20224;-82
2023/10/30 01:45:17;;;;;;;3.27;0.80;;;12.30;1.00;;;;;;5079430;28;20208;-82
2023/10/30 01:47:44;;;;;;;2.47;1.47;;;12.30;1.00;;;;;;5075408;28;20716;-84
2023/10/30 01:50:14;;;;;;;3.70;1.30;;;12.30;1.00;;;;;;5075204;28;20194;-82
2023/10/30 01:52:43;;;;;;;2.47;0.93;;;12.10;1.00;;;;;;5074231;28;20230;-83
2023/10/30 01:55:10;;;;;;;3.13;1.00;;;12.20;1.00;;;;;;5072548;28;20207;-84
2023/10/30 01:57:37;;;;;;;2.77;0.97;;;12.10;1.00;;;;;;5074735;28;20217;-84
2023/10/30 02:00:07;;;;;;;6.03;1.07;;;12.30;1.00;;;;;;5074660;28;20190;-86
2023/10/30 02:02:35;;;;;;;4.77;1.13;;;12.30;1.00;;;;;;5073556;28;20669;-84
2023/10/30 02:05:02;;;;;;;5.80;1.00;;;12.30;1.00;;;;;;5074194;28;20228;-84
2023/10/30 02:07:31;;;;;;;5.10;1.20;;;12.30;1.00;;;;;;5055059;28;20225;-82
2023/10/30 02:09:58;;;;;;;5.17;1.83;;;12.30;1.00;;;;;;5074164;28;20210;-84
2023/10/30 02:12:24;;;;;;;4.73;1.17;;;12.20;1.00;;;;;;5073975;28;20229;-84
2023/10/30 02:14:51;;;;;;;5.83;2.03;;;12.10;1.00;;;;;;5074292;28;20202;-84
2023/10/30 02:17:19;;;;;;;2.70;1.03;;;12.20;1.00;;;;;;5073921;28;20220;-84
2023/10/30 02:19:46;;;;;;;4.20;1.00;;;12.10;1.00;;;;;;5084693;28;20288;-83
2023/10/30 02:22:13;;;;;;;3.10;0.90;;;12.20;1.00;;;;;;5076046;28;20240;-83
2023/10/30 02:24:40;;;;;;;5.27;1.43;;;12.20;1.00;;;;;;5074561;28;20213;-83
2023/10/30 02:27:09;;;;;;;6.07;1.00;;;12.30;1.00;;;;;;5074363;28;20242;-82
2023/10/30 02:29:36;;;;;;;3.23;1.30;;;12.30;1.00;;;;;;5073945;28;20241;-82
2023/10/30 02:32:03;;;;;;;5.17;1.03;;;12.40;1.00;;;;;;5072498;28;20230;-81
2023/10/30 02:34:30;;;;;;;3.50;0.90;;;12.30;1.00;;;;;;5073803;28;20202;-83
2023/10/30 02:36:56;;;;;;;4.53;1.20;;;12.30;1.00;;;;;;5073653;28;20202;-83
2023/10/30 02:39:23;;;;;;;4.73;1.20;;;12.30;1.00;;;;;;5083912;28;20696;-82
2023/10/30 02:41:50;;;;;;;4.60;1.20;;;12.10;1.00;;;;;;5073056;28;20309;-83
2023/10/30 02:44:18;;;;;;;3.17;0.90;;;12.20;1.00;;;;;;5068219;28;20207;-84
2023/10/30 02:46:45;;;;;;;1.73;0.90;;;12.30;1.00;;;;;;5073181;28;20661;-82
2023/10/30 02:49:11;;;;;;;3.60;1.00;;;12.20;1.00;;;;;;5073187;28;20836;-83
2023/10/30 02:51:38;;;;;;;3.17;1.10;;;12.20;1.00;;;;;;5071874;28;20236;-82
2023/10/30 02:54:05;;;;;;;5.33;1.47;;;12.20;1.00;;;;;;5073337;28;20293;-83
2023/10/30 02:56:32;;;;;;;4.10;1.10;;;12.20;1.00;;;;;;5073456;28;20662;-82
2023/10/30 02:58:59;;;;;;;4.23;1.13;;;12.30;1.00;;;;;;5073541;28;20649;-82
2023/10/30 03:01:28;;;;;;;6.40;1.30;;;12.20;1.00;;;;;;5072526;28;20248;-82
2023/10/30 03:03:55;;;;;;;6.23;1.20;;;12.00;1.00;;;;;;5071044;28;20214;-82
2023/10/30 03:06:22;;;;;;;3.33;1.40;;;12.20;1.00;;;;;;5073145;28;20230;-83
2023/10/30 03:08:49;;;;;;;7.13;1.30;;;12.20;1.00;;;;;;5073517;28;20206;-84
2023/10/30 03:11:16;;;;;;;6.17;1.17;;;12.20;1.00;;;;;;5072838;28;20317;-83
2023/10/30 03:13:43;;;;;;;5.77;1.47;;;12.20;1.00;;;;;;5073401;28;20205;-82
2023/10/30 03:16:09;;;;;;;3.40;0.73;;;12.20;1.00;;;;;;5073093;28;20202;-83
2023/10/30 03:18:39;;;;;;;5.93;1.23;;;12.20;1.00;;;;;;5073119;28;20210;-82
2023/10/30 03:21:05;;;;;;;5.10;1.13;;;12.20;1.00;;;;;;5072440;28;20237;-82
2023/10/30 03:23:32;;;;;;;3.80;1.10;;;12.10;1.00;;;;;;5072164;28;20229;-84
2023/10/30 03:25:59;;;;;;;4.03;1.30;;;12.10;1.00;;;;;;5072640;28;20207;-83
2023/10/30 03:28:26;;;;;;;2.53;0.80;;;12.10;1.00;;;;;;5072623;28;20293;-84
2023/10/30 03:30:52;;;;;;;3.53;1.07;;;12.00;1.00;;;;;;5072721;28;20226;-83
2023/10/30 03:33:20;;;;;;;4.27;1.07;;;12.10;1.00;;;;;;5072012;28;20551;-83
2023/10/30 03:35:48;;;;;;;5.70;1.50;;;12.20;1.00;;;;;;5072729;28;20237;-83
2023/10/30 03:38:16;;;;;;;5.13;1.30;;;12.20;1.00;;;;;;5072669;28;20205;-82
2023/10/30 03:40:42;;;;;;;3.77;1.23;;;12.10;1.00;;;;;;5072842;28;20210;-82
2023/10/30 03:43:09;;;;;;;6.60;1.70;;;12.10;1.00;;;;;;5074067;28;20601;-82
2023/10/30 03:45:36;;;;;;;6.27;1.20;;;12.20;1.00;;;;;;5076877;28;20221;-84
2023/10/30 03:48:03;;;;;;;6.67;1.10;;;12.20;1.00;;;;;;5076944;28;20224;-82
2023/10/30 03:50:30;;;;;;;4.30;1.30;;;12.20;1.00;;;;;;5076589;28;20206;-83
2023/10/30 03:52:58;;;;;;;5.47;1.10;;;12.10;1.00;;;;;;5076546;28;20214;-85
2023/10/30 03:55:24;;;;;;;7.00;1.00;;;12.10;1.00;;;;;;5076885;28;20202;-84
2023/10/30 03:57:51;;;;;;;7.90;1.43;;;12.10;1.00;;;;;;5077058;28;20236;-82
2023/10/30 04:00:18;;;;;;;7.67;2.07;;;12.10;1.00;;;;;;5076792;28;20195;-82
2023/10/30 04:02:45;;;;;;;3.40;1.30;;;12.10;1.00;;;;;;5076133;28;20228;-82
2023/10/30 04:05:12;;;;;;;6.37;1.20;;;12.10;1.00;;;;;;5076395;28;20202;-83
2023/10/30 04:07:39;;;;;;;4.70;1.30;;;12.00;1.00;;;;;;5075710;28;20680;-82
2023/10/30 04:10:08;;;;;;;3.80;1.00;;;11.90;80.20;;;;;;5075857;28;20581;-84
2023/10/30 04:12:35;;;;;;;6.03;1.40;;;12.00;1.10;;;;;;5075574;28;20716;-82
2023/10/30 04:15:01;;;;;;;7.37;1.50;;;12.10;56.00;;;;;;5087430;28;20230;-83
2023/10/30 04:17:28;;;;;;;3.50;1.10;;;12.00;1.00;;;;;;5076040;28;20217;-82
2023/10/30 04:19:55;;;;;;;4.63;1.37;;;12.00;1.00;;;;;;5076754;28;20650;-83
2023/10/30 04:22:22;;;;;;;6.07;1.27;;;12.00;98.60;;;;;;5067806;28;20237;-82
2023/10/30 04:24:49;;;;;;;6.83;1.43;;;12.10;10.10;;;;;;5075438;28;20218;-82
2023/10/30 04:27:17;;;;;;;9.13;1.50;;;12.20;53.20;;;;;;5060128;28;20203;-82
2023/10/30 04:29:44;;;;;;;4.93;1.60;;;12.10;1.00;;;;;;5076091;28;20206;-82
2023/10/30 04:32:11;;;;;;;8.87;1.53;;;12.00;15.60;;;;;;5075516;28;20222;-82
2023/10/30 04:34:38;;;;;;;4.33;1.30;;;12.00;68.20;;;;;;5076629;28;20328;-82
2023/10/30 04:37:05;;;;;;;7.53;1.53;;;11.90;99.90;;;;;;5076344;28;20206;-82
2023/10/30 04:39:32;;;;;;;6.43;1.27;;;12.00;99.90;;;;;;5075788;28;20206;-84
2023/10/30 04:41:59;;;;;;;17.43;3.07;;;12.00;99.90;;;;;;5083023;28;20241;-82
2023/10/30 04:44:27;;;;;;;3.60;1.00;;;12.00;99.90;;;;;;5075985;28;20238;-82
2023/10/30 04:46:54;;;;;;;5.70;1.83;;;12.10;48.30;;;;;;5076102;28;20217;-81
2023/10/30 04:49:21;;;;;;;6.60;1.43;;;12.10;90.00;;;;;;5075870;28;20209;-85
2023/10/30 04:51:47;;;;;;;4.70;1.70;;;12.10;99.90;;;;;;5076206;28;20599;-82
2023/10/30 04:54:14;;;;;;;6.83;1.20;;;12.10;99.90;;;;;;5074259;28;20202;-84
2023/10/30 04:56:41;;;;;;;4.57;1.40;;;12.20;99.90;;;;;;5071563;28;20206;-85
2023/10/30 04:59:08;;;;;;;3.77;0.90;;;12.20;99.90;;;;;;5077721;28;20194;-83
2023/10/30 05:01:36;;;;;;;6.87;1.23;;;12.20;99.90;;;;;;5078027;28;20220;-82
2023/10/30 05:04:03;;;;;;;6.27;1.50;;;12.10;99.90;;;;;;5074408;28;20227;-81
2023/10/30 05:06:30;;;;;;;6.33;1.63;;;12.20;99.90;;;;;;5069182;28;20198;-81
2023/10/30 05:08:57;;;;;;;5.87;1.40;;;12.20;93.90;;;;;;5076119;28;20244;-81
2023/10/30 05:11:24;;;;;;;7.60;1.47;;;12.30;23.80;;;;;;5078073;28;20222;-83
2023/10/30 05:13:51;;;;;;;5.80;1.47;;;12.30;21.40;;;;;;5071865;28;20206;-81
2023/10/30 05:16:17;;;;;;;6.63;1.17;;;12.30;21.40;;;;;;5075549;28;20255;-80
2023/10/30 05:18:45;;;;;;;8.17;1.47;;;12.20;52.10;;;;;;5075464;28;20237;-80
2023/10/30 05:21:12;;;;;;;6.20;1.30;;;12.20;99.90;;;;;;5075361;28;20222;-81
2023/10/30 05:23:39;;;;;;;9.70;1.53;;;12.30;14.70;;;;;;5075949;28;20233;-80
2023/10/30 05:26:06;;;;;;;13.50;1.43;;;12.30;1.00;;;;;;5077295;28;20500;-81
2023/10/30 05:28:33;;;;;;;4.03;1.63;;;12.30;17.10;;;;;;5075891;28;20256;-81
2023/10/30 05:31:05;;;;;;;6.13;1.57;;;12.20;48.80;;;;;;5076562;28;20230;-82
2023/10/30 05:33:32;;;;;;;3.93;1.23;;;12.30;1.00;;;;;;5083145;28;20201;-80
2023/10/30 05:36:00;;;;;;;8.87;1.87;;;12.20;5.70;;;;;;5077118;28;20199;-82
2023/10/30 05:38:27;;;;;;;4.73;1.33;;;12.20;24.00;;;;;;5078219;28;20230;-83
2023/10/30 05:40:54;;;;;;;5.40;1.30;;;12.20;45.30;;;;;;5074255;28;20603;-81
2023/10/30 05:43:21;;;;;;;3.00;1.17;;;12.20;96.80;;;;;;5074845;28;20219;-84
2023/10/30 05:45:48;;;;;;;5.87;1.50;;;12.20;99.40;;;;;;5074327;28;20674;-81
2023/10/30 05:48:15;;;;;;;7.67;1.20;;;12.10;99.90;;;;;;5075514;28;20682;-82
2023/10/30 05:50:42;;;;;;;5.90;1.20;;;12.10;99.90;;;;;;5074073;28;20271;-81
2023/10/30 05:53:10;;;;;;;6.90;1.43;;;12.10;99.90;;;;;;5075464;28;20206;-80
2023/10/30 05:55:37;;;;;;;5.63;1.23;;;12.00;99.90;;;;;;5078234;28;20699;-81
2023/10/30 05:58:04;;;;;;;4.07;1.30;;;12.00;99.90;;;;;;5074608;28;20683;-81
2023/10/30 06:00:30;;;;;;;8.90;1.33;;;12.00;99.90;;;;;;5067323;28;20202;-81
2023/10/30 06:02:57;;;;;;;4.57;1.33;;;11.90;99.90;;;;;;5073967;28;20930;-81
2023/10/30 06:05:24;;;;;;;7.07;1.93;;;11.90;99.90;;;;;;5076261;28;20747;-80
2023/10/30 06:07:51;;;;;;;9.20;1.83;;;11.80;99.90;;;;;;5076867;28;20209;-78
2023/10/30 06:10:22;;;;;;;3.10;1.20;;;11.80;99.90;;;;;;5078221;28;20194;-79
2023/10/30 06:12:48;;;;;;;4.60;1.20;;;11.90;99.90;;;;;;5073775;28;20234;-80
2023/10/30 06:15:15;;;;;;;6.47;1.50;;;11.80;1.00;;;;;;5076246;28;20574;-78
2023/10/30 06:17:42;;;;;;;4.50;1.50;;;11.80;1.00;;;;;;5079025;28;20662;-82
2023/10/30 06:20:11;;;;;;;4.80;1.07;;;11.80;1.00;;;;;;5071737;28;20209;-78
2023/10/30 06:22:38;;;;;;;9.00;1.80;;;11.80;1.00;;;;;;5073470;28;20862;-81
2023/10/30 06:25:06;;;;;;;7.27;1.83;;;12.00;99.90;;;;;;5077068;28;20638;-81
2023/10/30 06:27:34;;;;;;;4.37;1.50;;;11.90;99.90;;;;;;5080432;28;20220;-80
2023/10/30 06:30:01;;;;;;;5.33;1.73;;;11.90;99.90;;;;;;5072597;28;20243;-79
2023/10/30 06:32:28;;;;;;;3.90;1.53;;;11.90;99.90;;;;;;5072021;28;20226;-82
2023/10/30 06:34:54;;;;;;;8.63;1.77;;;12.00;99.90;;;;;;5073382;28;20198;-81
2023/10/30 06:37:21;;;;;;;8.43;1.50;;;12.10;99.90;;;;;;5062043;28;20198;-80
2023/10/30 06:39:48;;;;;;;5.53;1.60;;;12.10;99.90;;;;;;5074709;28;20719;-79
2023/10/30 06:42:15;;;;;;;5.77;1.67;;;12.10;99.90;;;;;;5076246;28;20585;-80
2023/10/30 06:44:44;;;;;;;9.67;2.10;;;12.10;99.90;;;;;;5073098;28;20701;-79
2023/10/30 06:47:11;;;;;;;3.43;1.23;;;12.20;99.90;;;;;;5073630;28;20677;-79
2023/10/30 06:49:38;;;;;;;4.90;1.30;;;12.10;99.90;;;;;;5075128;28;20199;-79
2023/10/30 06:52:05;;;;;;;3.13;1.13;;;12.20;99.90;;;;;;5068874;28;20236;-79
2023/10/30 06:54:32;;;;;;;6.53;1.40;;;12.20;99.90;;;;;;5078146;28;20633;-83
2023/10/30 06:56:59;;;;;;;6.97;1.27;;;12.10;99.90;;;;;;5080155;28;20299;-81
2023/10/30 06:59:27;;;;;;;5.33;1.87;;;12.10;99.90;;;;;;5071864;28;20742;-81
2023/10/30 07:01:55;;;;;;;9.83;3.23;;;12.20;99.90;;;;;;5076832;28;20316;-82
2023/10/30 07:04:22;;;;;;;6.33;2.07;;;12.20;99.90;;;;;;5076570;28;20838;-81
2023/10/30 07:06:50;;;;;;;8.80;1.97;;;12.30;99.90;;;;;;5078428;28;20287;-80
2023/10/30 07:09:17;;;;;;;7.77;1.87;;;12.20;99.90;;;;;;5084818;28;20221;-81
2023/10/30 07:11:45;;;;;;;11.23;2.00;;;12.20;99.90;;;;;;5071703;28;20226;-80
2023/10/30 07:14:12;;;;;;;3.83;1.40;;;12.20;99.90;;;;;;5079611;28;20190;-82
2023/10/30 07:16:38;;;;;;;6.97;1.40;;;12.30;99.90;;;;;;5077514;28;20238;-83
2023/10/30 07:19:07;;;;;;;6.73;2.00;;;12.30;99.90;;;;;;5077146;28;20220;-82
2023/10/30 07:21:34;;;;;;;3.03;1.57;;;12.20;99.90;;;;;;5090893;28;20827;-80
2023/10/30 07:24:00;;;;;;;9.87;2.23;;;12.30;99.90;;;;;;5080541;28;20218;-80
2023/10/30 07:26:27;;;;;;;4.37;1.53;;;12.30;99.90;;;;;;5077887;28;20202;-81
2023/10/30 07:28:55;;;;;;;7.50;2.53;;;12.30;99.90;;;;;;5078010;28;20205;-83
2023/10/30 07:31:22;;;;;;;6.70;1.57;;;12.20;99.90;;;;;;5080539;28;20226;-83
2023/10/30 07:33:50;;;;;;;4.30;1.57;;;12.20;1.00;;;;;;5080690;28;20289;-81
2023/10/30 07:36:18;;;;;;;6.40;2.07;;;12.30;99.90;;;;;;5081205;28;20255;-81
2023/10/30 07:38:45;;;;;;;9.20;1.97;;;12.30;99.90;;;;;;5076727;28;20202;-84
2023/10/30 07:41:12;;;;;;;8.50;1.93;;;12.30;99.90;;;;;;5075498;28;20232;-81
2023/10/30 07:43:38;;;;;;;4.67;1.77;;;12.40;99.90;;;;;;5078102;28;20214;-81
2023/10/30 07:46:06;;;;;;;5.97;1.70;;;12.50;99.90;;;;;;5087577;28;20208;-84
2023/10/30 07:48:33;;;;;;;7.37;1.60;;;12.40;99.90;;;;;;5074847;28;20618;-81
2023/10/30 07:51:02;;;;;;;7.67;2.00;;;12.40;99.90;;;;;;5077118;28;20566;-81
2023/10/30 07:53:31;;;;;;;8.73;2.00;;;12.50;99.90;;;;;;5078786;28;20289;-80
2023/10/30 07:55:58;;;;;;;3.35;1.30;;;12.40;99.90;;;;;;5077161;28;20577;-81
2023/10/30 07:58:25;;;;;;;4.17;1.53;;;12.60;99.90;;;;;;5076219;28;20206;-82
2023/10/30 08:00:53;;;;;;;7.63;1.80;;;12.70;99.90;;;;;;5071621;28;20222;-83
2023/10/30 08:03:20;;;;;;;4.73;1.80;;;12.70;99.90;;;;;;5077659;28;20297;-83
2023/10/30 08:05:47;;;;;;;6.23;1.77;;;12.70;99.90;;;;;;5082224;28;20250;-84
2023/10/30 08:08:16;;;;;;;4.17;1.80;;;12.70;99.90;;;;;;5075700;28;20206;-81
2023/10/30 08:10:45;;;;;;;6.30;1.53;;;12.80;99.90;;;;;;5075122;28;20214;-81
2023/10/30 08:13:12;;;;;;;6.80;1.75;;;12.90;80.60;;;;;;5076896;28;20233;-82
2023/10/30 08:15:39;;;;;;;4.97;1.60;;;12.90;87.60;;;;;;5083314;28;20297;-84
2023/10/30 08:18:06;;;;;;;4.80;1.50;;;12.90;99.90;;;;;;5092117;28;20236;-84
2023/10/30 08:20:32;;;;;;;6.57;1.43;;;12.90;99.90;;;;;;5083740;28;20690;-83
2023/10/30 08:22:59;;;;;;;3.73;1.70;;;12.90;99.90;;;;;;5076349;28;20209;-82
2023/10/30 08:25:27;;;;;;;5.88;1.70;;;12.90;99.90;;;;;;5075561;28;20225;-83
2023/10/30 08:27:56;;;;;;;4.70;1.50;;;12.90;99.90;;;;;;5076196;28;20213;-82
2023/10/30 08:30:24;;;;;;;8.02;1.55;;;12.90;99.90;;;;;;5057930;28;20207;-82
2023/10/30 08:32:51;;;;;;;5.17;2.10;;;12.90;99.90;;;;;;5075547;28;20271;-82
2023/10/30 08:35:18;;;;;;;4.45;1.80;;;12.90;99.90;;;;;;5075564;28;20202;-84
2023/10/30 08:37:44;;;;;;;5.87;1.70;;;12.90;99.90;;;;;;5075805;28;20202;-82
2023/10/30 08:40:12;;;;;;;4.57;1.70;;;12.90;99.90;;;;;;5075532;28;20226;-83
2023/10/30 08:42:39;;;;;;;6.85;1.60;;;12.80;99.90;;;;;;5087549;28;20227;-81
2023/10/30 08:45:08;;;;;;;13.50;6.20;;;12.80;99.90;;;;;;5075489;28;20732;-81
2023/10/30 08:47:36;;;;;;;12.30;6.50;;;12.70;99.90;;;;;;5075424;28;20209;-81
2023/10/30 08:50:02;;;;;;;25.73;4.03;;;12.70;99.90;;;;;;5075166;28;20216;-81
2023/10/30 08:52:29;;;;;;;6.37;1.70;;;12.80;99.90;;;;;;5075083;28;20222;-78
2023/10/30 08:54:56;;;;;;;6.87;1.70;;;12.70;99.90;;;;;;5081726;28;20208;-81
2023/10/30 08:57:23;;;;;;;6.83;1.70;;;12.70;99.90;;;;;;5086762;28;20202;-83
2023/10/30 08:59:50;;;;;;;3.53;1.03;;;12.70;99.90;;;;;;5089221;28;20206;-83
2023/10/30 09:02:18;;;;;;;4.67;1.97;;;12.80;99.90;;;;;;5073962;28;20229;-81
2023/10/30 09:04:45;;;;;;;8.00;1.63;;;12.80;99.90;;;;;;5074561;28;20590;-82
2023/10/30 09:07:12;;;;;;;7.00;1.50;;;12.80;99.90;;;;;;5074425;28;20284;-82
2023/10/30 09:09:39;;;;;;;22.60;3.07;;;12.90;99.90;;;;;;5079128;28;20204;-81
2023/10/30 09:12:06;;;;;;;5.90;1.83;;;12.90;99.90;;;;;;5077708;28;20305;-81
2023/10/30 09:14:33;;;;;;;7.33;1.93;;;13.10;99.90;;;;;;5074627;28;20217;-79
2023/10/30 09:17:00;;;;;;;5.28;2.00;;;13.20;99.90;;;;;;5074138;28;20554;-80
2023/10/30 09:19:28;;;;;;;4.32;1.48;;;13.30;99.90;;;;;;5069765;28;20199;-81
2023/10/30 09:21:55;;;;;;;5.95;1.50;;;13.40;99.90;;;;;;5085629;28;20701;-81
2023/10/30 09:24:22;;;;;;;5.22;1.27;;;13.60;99.90;;;;;;5073680;28;20215;-79
2023/10/30 09:26:49;;;;;;;5.30;1.50;;;13.80;46.90;;;;;;5081312;28;20202;-79
2023/10/30 09:29:15;;;;;;;1.92;1.30;;;14.00;1.00;;;;;;5077051;28;20588;-79
2023/10/30 09:31:44;;;;;;;4.88;1.52;;;14.20;1.00;;;;;;5074041;28;20226;-80
2023/10/30 09:34:11;;;;;;;7.00;1.48;;;14.40;1.00;;;;;;5082070;28;20217;-79
2023/10/30 09:36:39;;;;;;;4.35;1.38;;;14.50;1.00;;;;;;5081755;28;20244;-82
2023/10/30 09:39:07;;;;;;;5.18;1.77;;;14.60;1.00;;;;;;5075021;28;20289;-80
2023/10/30 09:41:40;;;;;;;5.05;1.23;;;14.80;1.00;;;;;;5082167;28;20297;-81
2023/10/30 09:44:10;;;;;;;5.13;1.63;;;14.80;1.00;;;;;;5079718;28;20218;-80
2023/10/30 09:46:39;;;;;;;3.97;1.73;;;14.90;1.00;;;;;;5077305;28;20210;-81
2023/10/30 09:49:08;;;;;;;5.53;2.10;;;15.00;1.00;;;;;;5075474;28;20210;-81
2023/10/30 09:51:36;;;;;;;4.60;1.67;;;15.00;1.00;;;;;;5076665;28;20221;-79
2023/10/30 09:54:06;;;;;;;3.63;1.58;;;15.00;1.00;;;;;;5079145;28;20202;-81
2023/10/30 09:56:34;;;;;;;6.10;1.33;;;15.10;1.00;;;;;;5081854;28;20633;-81
2023/10/30 09:59:01;;;;;;;6.00;1.60;;;15.40;1.00;;;;;;5080432;28;20733;-82
2023/10/30 10:01:28;;;;;;;6.40;1.67;;;15.50;1.00;;;;;;5079771;28;20225;-82
2023/10/30 10:03:55;;;;;;;4.82;1.60;;;15.40;99.90;;;;;;5074304;28;20214;-83
2023/10/30 10:06:22;;;;;;;3.72;0.95;;;15.50;99.90;;;;;;5075598;28;20211;-82
2023/10/30 10:08:49;;;;;;;5.07;1.42;;;15.80;99.90;;;;;;5071701;28;20608;-84
2023/10/30 10:11:22;;;;;;;3.97;1.30;;;15.80;99.90;;;;;;5075377;28;20228;-83
2023/10/30 10:13:50;;;;;;;3.38;1.20;;;15.80;99.90;;;;;;5073431;28;20619;-80
2023/10/30 10:16:17;;;;;;;5.03;1.65;;;16.00;99.90;;;;;;5089579;28;20206;-82
2023/10/30 10:18:44;;;;;;;6.00;1.95;;;16.00;99.90;;;;;;5080230;28;20596;-84
2023/10/30 10:21:11;;;;;;;4.20;1.20;;;16.10;99.90;;;;;;5073888;28;20312;-81
2023/10/30 10:23:39;;;;;;;3.10;1.48;;;16.20;99.90;;;;;;5076453;28;20213;-82
2023/10/30 10:26:13;;;;;;;4.30;1.48;;;16.20;99.90;;;;;;5083454;28;20746;-81
2023/10/30 10:28:42;;;;;;;2.28;1.20;;;16.00;99.90;;;;;;5077150;28;20285;-81
2023/10/30 10:31:09;;;;;;;3.20;1.30;;;16.00;99.90;;;;;;5085693;28;20275;-81
2023/10/30 10:33:37;;;;;;;2.67;0.80;;;16.30;99.90;;;;;;5075617;28;20205;-83
2023/10/30 10:36:07;;;;;;;3.13;1.55;;;16.40;99.90;;;;;;5079550;28;20194;-81
2023/10/30 10:38:35;;;;;;;3.38;1.38;;;16.60;99.90;;;;;;5077236;28;20198;-83
2023/10/30 10:41:02;;;;;;;5.45;1.02;;;16.70;97.80;;;;;;5074806;28;20283;-81
2023/10/30 10:43:31;;;;;;;2.42;1.45;;;16.70;47.70;;;;;;5071583;28;20197;-81
2023/10/30 10:45:59;;;;;;;2.33;1.30;;;16.70;23.00;;;;;;5073276;28;20223;-81
2023/10/30 10:48:27;;;;;;;5.65;1.27;;;16.60;1.00;;;;;;5074622;28;20253;-83
2023/10/30 10:50:55;;;;;;;2.78;1.00;;;16.70;1.00;;;;;;5073828;28;20309;-82
2023/10/30 10:53:24;;;;;;;2.63;1.10;;;17.00;1.00;;;;;;5076104;28;20215;-82
2023/10/30 10:55:52;;;;;;;5.00;1.25;;;17.00;1.00;;;;;;5078762;28;20217;-83
2023/10/30 10:58:21;;;;;;;5.00;1.58;;;17.30;1.00;;;;;;5076808;28;20198;-83
2023/10/30 11:00:50;;;;;;;2.85;1.20;;;17.10;1.00;;;;;;5070679;28;20218;-82
2023/10/30 11:03:18;;;;;;;3.83;1.30;;;17.10;1.00;;;;;;5073226;28;20580;-81
2023/10/30 11:05:47;;;;;;;2.13;1.10;;;17.10;1.00;;;;;;5073539;28;20593;-81
2023/10/30 11:08:29;;;;;;;4.53;1.00;;;17.40;1.00;;;;;;5075190;28;20202;-81
2023/10/30 11:11:03;;;;;;;2.42;0.82;;;17.10;1.00;;;;;;5068155;28;20744;-81
2023/10/30 11:13:40;;;;;;;3.58;1.00;;;17.50;1.00;;;;;;5072581;28;20202;-82
2023/10/30 11:16:14;;;;;;;3.85;1.08;;;17.40;1.00;;;;;;5084797;28;20196;-82
2023/10/30 11:18:43;;;;;;;1.80;0.88;;;17.50;1.00;;;;;;5078640;28;20703;-82
2023/10/30 11:21:12;;;;;;;5.28;1.63;;;17.60;1.00;;;;;;5084977;28;20218;-83
2023/10/30 11:23:52;;;;;;;1.40;1.00;;;17.80;1.00;;;;;;5079317;28;20213;-80
2023/10/30 11:26:39;;;;;;;2.58;0.82;;;17.80;1.00;;;;;;5073419;28;20218;-79
2023/10/30 11:29:07;;;;;;;2.10;1.17;;;17.80;1.00;;;;;;5071572;28;20198;-82
2023/10/30 11:31:52;;;;;;;1.95;0.70;;;17.80;1.00;;;;;;5083316;28;20230;-79
2023/10/30 11:34:25;;;;;;;4.25;1.10;;;17.70;1.00;;;;;;5072996;28;20569;-79
2023/10/30 11:36:52;;;;;;;2.50;0.75;;;17.90;1.00;;;;;;5072420;28;20562;-79
2023/10/30 11:39:21;;;;;;;3.22;0.98;;;18.00;1.00;;;;;;5079123;28;20194;-80
2023/10/30 11:41:52;;;;;;;4.85;1.15;;;18.20;1.00;;;;;;5074418;28;20244;-79
2023/10/30 11:44:19;;;;;;;1.35;0.75;;;17.90;1.00;;;;;;5070735;28;20202;-79
2023/10/30 11:46:47;;;;;;;0.85;0.65;;;17.60;1.00;;;;;;5075843;28;20723;-81
2023/10/30 11:49:16;;;;;;;3.17;0.80;;;17.50;1.00;;;;;;5075189;28;20198;-80
2023/10/30 11:51:46;;;;;;;1.95;0.55;;;17.30;1.00;;;;;;5071130;28;20229;-78
2023/10/30 11:54:14;;;;;;;1.55;0.77;;;17.20;1.00;;;;;;5072142;28;20206;-79
2023/10/30 11:56:48;;;;;;;2.70;0.90;;;17.10;1.00;;;;;;5076658;28;20202;-79
2023/10/30 11:59:15;;;;;;;1.05;0.65;;;17.10;1.00;;;;;;5074633;28;20209;-80
2023/10/30 12:01:44;;;;;;;1.33;0.60;;;16.90;1.00;;;;;;5073484;28;20626;-81
2023/10/30 12:04:11;;;;;;;1.33;0.55;;;16.80;1.00;;;;;;5078936;28;20198;-78
2023/10/30 12:06:38;;;;;;;1.85;0.65;;;17.20;1.00;;;;;;5085425;28;20217;-80
2023/10/30 12:09:06;;;;;;;2.75;0.70;;;18.20;1.00;;;;;;5081609;28;20195;-79
2023/10/30 12:11:33;;;;;;;2.70;0.50;;;18.20;1.00;;;;;;5075007;28;20215;-80
2023/10/30 12:14:01;;;;;;;1.45;0.77;;;17.80;1.00;;;;;;5081425;28;20559;-79
2023/10/30 12:16:29;;;;;;;1.48;0.45;;;18.50;1.00;;;;;;5088290;28;20222;-79
2023/10/30 12:18:57;;;;;;;1.45;0.73;;;18.90;1.00;;;;;;5078988;28;20680;-80
2023/10/30 12:21:24;;;;;;;1.35;0.63;;;19.10;1.00;;;;;;5075608;28;20232;-79
2023/10/30 12:23:55;;;;;;;1.33;0.40;;;19.90;1.00;;;;;;5082442;28;20575;-80
2023/10/30 12:26:24;;;;;;;2.05;0.55;;;20.80;1.00;;;;;;5085028;28;20623;-81
2023/10/30 12:28:50;;;;;;;1.33;0.60;;;21.20;1.00;;;;;;5075844;28;20212;-80
2023/10/30 12:31:19;;;;;;;2.83;0.50;;;19.60;99.90;;;;;;5081477;28;20218;-79
2023/10/30 12:33:45;;;;;;;1.67;0.30;;;17.80;1.00;;;;;;5086446;28;20649;-79
2023/10/30 12:36:12;;;;;;;2.00;0.40;;;17.10;1.00;;;;;;5084563;28;20198;-79
2023/10/30 12:38:39;;;;;;;1.67;0.55;;;16.90;1.00;;;;;;5080290;28;20594;-78
2023/10/30 12:41:07;;;;;;;1.10;0.35;;;17.90;1.00;;;;;;5081575;28;20241;-77
2023/10/30 12:43:39;;;;;;;1.38;0.73;;;18.80;1.00;;;;;;5074790;28;20204;-78
2023/10/30 12:46:06;;;;;;;1.20;0.50;;;19.30;1.00;;;;;;5077105;28;20404;-78
2023/10/30 12:48:33;;;;;;;2.22;0.40;;;19.80;1.00;;;;;;5077377;28;20202;-79
2023/10/30 12:51:00;;;;;;;1.42;0.45;;;19.80;1.00;;;;;;5076985;28;20218;-78
2023/10/30 12:53:27;;;;;;;1.15;0.60;;;19.30;99.90;;;;;;5080953;28;20210;-77
2023/10/30 12:55:53;;;;;;;2.65;0.52;;;19.30;99.90;;;;;;5078245;28;20217;-80